createdAt,value
2019-02-20T00:00:47.846Z,24.95
2019-02-20T00:01:47.805Z,24.95
2019-02-20T00:02:47.758Z,24.95
2019-02-20T00:03:47.713Z,24.93
2019-02-20T00:04:47.668Z,24.99
2019-02-20T00:05:47.624Z,24.95
2019-02-20T00:06:47.586Z,24.96
2019-02-20T00:07:47.535Z,24.96
2019-02-20T00:08:47.499Z,24.88
2019-02-20T00:09:47.446Z,24.98
2019-02-20T00:10:47.408Z,24.99
2019-02-20T00:11:47.359Z,24.90
2019-02-20T00:12:47.312Z,24.96
2019-02-20T00:13:47.269Z,24.95
2019-02-20T00:14:47.223Z,24.90
2019-02-20T00:15:47.180Z,24.99
2019-02-20T00:16:47.137Z,24.96
2019-02-20T00:17:47.091Z,24.98
2019-02-20T00:18:47.046Z,24.99
2019-02-20T00:19:47.002Z,24.95
2019-02-20T00:20:46.956Z,24.95
2019-02-20T00:21:46.912Z,24.98
2019-02-20T00:22:46.869Z,24.98
2019-02-20T00:23:46.847Z,24.96
2019-02-20T00:24:46.782Z,24.98
2019-02-20T00:25:46.739Z,24.99
2019-02-20T00:26:46.694Z,24.98
2019-02-20T00:27:46.646Z,24.98
2019-02-20T00:28:46.601Z,24.98
2019-02-20T00:29:46.557Z,25.02
2019-02-20T00:30:46.522Z,24.91
2019-02-20T00:31:46.474Z,24.95
2019-02-20T00:32:46.423Z,24.93
2019-02-20T00:33:46.379Z,24.88
2019-02-20T00:34:46.335Z,24.95
2019-02-20T00:35:46.325Z,24.95
2019-02-20T00:36:46.245Z,25.08
2019-02-20T00:37:46.201Z,25.00
2019-02-20T00:38:46.157Z,24.95
2019-02-20T00:39:46.113Z,24.98
2019-02-20T00:40:46.167Z,25.00
2019-02-20T00:41:46.025Z,25.00
2019-02-20T00:42:45.979Z,25.03
2019-02-20T00:43:45.937Z,25.03
2019-02-20T00:44:45.888Z,24.96
2019-02-20T00:45:45.845Z,24.95
2019-02-20T00:46:45.817Z,25.02
2019-02-20T00:47:45.762Z,25.05
2019-02-20T00:48:45.711Z,25.02
2019-02-20T00:49:45.667Z,24.93
2019-02-20T00:50:45.623Z,24.99
2019-02-20T00:51:45.579Z,25.06
2019-02-20T00:52:49.829Z,24.90
2019-02-20T00:53:45.490Z,25.06
2019-02-20T00:54:45.447Z,24.91
2019-02-20T00:55:45.404Z,24.99
2019-02-20T00:56:45.354Z,24.98
2019-02-20T00:57:45.311Z,24.99
2019-02-20T00:58:45.267Z,24.98
2019-02-20T00:59:45.225Z,24.98
2019-02-20T01:00:45.178Z,24.96
2019-02-20T01:01:45.134Z,24.99
2019-02-20T01:02:45.089Z,25.02
2019-02-20T01:03:45.045Z,24.96
2019-02-20T01:04:45.000Z,25.00
2019-02-20T01:05:45.007Z,24.91
2019-02-20T01:06:45.264Z,24.99
2019-02-20T01:07:44.871Z,24.93
2019-02-20T01:08:44.824Z,25.06
2019-02-20T01:09:44.777Z,25.00
2019-02-20T01:10:44.734Z,25.03
2019-02-20T01:11:44.688Z,24.96
2019-02-20T01:12:44.645Z,24.96
2019-02-20T01:13:44.601Z,25.00
2019-02-20T01:14:44.558Z,24.91
2019-02-20T01:15:44.514Z,25.02
2019-02-20T01:16:44.469Z,25.06
2019-02-20T01:17:44.433Z,25.06
2019-02-20T01:18:44.378Z,25.00
2019-02-20T01:19:44.332Z,24.96
2019-02-20T01:20:44.287Z,25.02
2019-02-20T01:21:44.244Z,25.02
2019-02-20T01:22:44.198Z,25.09
2019-02-20T01:23:44.156Z,24.95
2019-02-20T01:24:44.109Z,24.90
2019-02-20T01:25:44.067Z,25.02
2019-02-20T01:26:44.022Z,25.03
2019-02-20T01:27:43.977Z,24.90
2019-02-20T01:28:43.981Z,24.98
2019-02-20T01:29:43.888Z,24.93
2019-02-20T01:30:43.850Z,25.08
2019-02-20T01:31:43.799Z,24.98
2019-02-20T01:32:43.754Z,24.93
2019-02-20T01:33:43.710Z,25.03
2019-02-20T01:34:43.669Z,25.03
2019-02-20T01:35:43.622Z,24.96
2019-02-20T01:36:43.577Z,24.99
2019-02-20T01:37:43.534Z,24.98
2019-02-20T01:38:43.487Z,24.95
2019-02-20T01:39:43.444Z,24.99
2019-02-20T01:40:43.399Z,24.96
2019-02-20T01:41:43.357Z,24.93
2019-02-20T01:42:43.310Z,24.98
2019-02-20T01:43:43.266Z,24.99
2019-02-20T01:44:43.225Z,25.09
2019-02-20T01:45:43.181Z,24.96
2019-02-20T01:46:43.131Z,24.99
2019-02-20T01:47:43.091Z,24.90
2019-02-20T01:48:43.047Z,24.93
2019-02-20T01:49:42.999Z,25.05
2019-02-20T01:50:43.055Z,24.98
2019-02-20T01:51:44.551Z,25.00
2019-02-20T01:52:42.865Z,25.03
2019-02-20T01:53:42.821Z,24.95
2019-02-20T01:54:42.777Z,24.99
2019-02-20T01:55:42.733Z,24.95
2019-02-20T01:56:42.687Z,25.08
2019-02-20T01:57:42.649Z,25.00
2019-02-20T01:58:42.599Z,24.93
2019-02-20T01:59:42.554Z,24.90
2019-02-20T02:00:42.510Z,24.98
2019-02-20T02:01:42.468Z,24.99
2019-02-20T02:02:42.423Z,25.09
2019-02-20T02:03:42.379Z,24.98
2019-02-20T02:04:42.332Z,24.90
2019-02-20T02:05:42.604Z,25.09
2019-02-20T02:06:42.254Z,24.93
2019-02-20T02:07:42.199Z,24.93
2019-02-20T02:08:42.154Z,25.13
2019-02-20T02:09:42.110Z,25.09
2019-02-20T02:10:42.068Z,24.95
2019-02-20T02:11:42.022Z,25.02
2019-02-20T02:12:41.980Z,25.02
2019-02-20T02:13:41.933Z,24.99
2019-02-20T02:14:41.887Z,25.02
2019-02-20T02:15:41.846Z,25.02
2019-02-20T02:16:41.798Z,25.02
2019-02-20T02:17:41.752Z,25.02
2019-02-20T02:18:41.710Z,24.95
2019-02-20T02:19:41.666Z,24.95
2019-02-20T02:20:41.622Z,24.93
2019-02-20T02:21:41.576Z,24.96
2019-02-20T02:22:41.532Z,24.96
2019-02-20T02:23:41.488Z,24.96
2019-02-20T02:24:41.444Z,24.90
2019-02-20T02:25:41.398Z,24.96
2019-02-20T02:26:41.354Z,24.95
2019-02-20T02:27:41.309Z,24.90
2019-02-20T02:28:41.264Z,24.98
2019-02-20T02:29:41.224Z,24.95
2019-02-20T02:30:41.196Z,24.98
2019-02-20T02:31:41.136Z,24.98
2019-02-20T02:32:41.087Z,25.02
2019-02-20T02:33:41.043Z,24.95
2019-02-20T02:34:41.048Z,25.02
2019-02-20T02:35:41.004Z,25.00
2019-02-20T02:36:40.960Z,25.00
2019-02-20T02:37:40.871Z,24.95
2019-02-20T02:38:40.826Z,24.99
2019-02-20T02:39:40.777Z,25.09
2019-02-20T02:40:40.731Z,24.98
2019-02-20T02:41:40.688Z,24.95
2019-02-20T02:42:40.718Z,25.03
2019-02-20T02:43:40.605Z,24.99
2019-02-20T02:44:40.557Z,24.96
2019-02-20T02:45:40.509Z,24.99
2019-02-20T02:46:40.463Z,25.03
2019-02-20T02:47:40.473Z,24.98
2019-02-20T02:48:40.409Z,24.96
2019-02-20T02:49:40.331Z,24.91
2019-02-20T02:50:40.287Z,24.96
2019-02-20T02:51:40.248Z,25.00
2019-02-20T02:52:40.198Z,25.02
2019-02-20T02:53:40.157Z,24.95
2019-02-20T02:54:40.111Z,24.96
2019-02-20T02:55:40.065Z,24.95
2019-02-20T02:56:40.019Z,24.93
2019-02-20T02:57:39.975Z,24.95
2019-02-20T02:58:39.937Z,24.99
2019-02-20T02:59:39.887Z,25.06
2019-02-20T03:00:39.842Z,25.03
2019-02-20T03:01:39.798Z,25.02
2019-02-20T03:02:39.753Z,24.96
2019-02-20T03:03:39.708Z,25.00
2019-02-20T03:04:39.664Z,24.99
2019-02-20T03:05:39.620Z,24.93
2019-02-20T03:06:39.582Z,25.02
2019-02-20T03:07:39.531Z,24.99
2019-02-20T03:08:39.486Z,24.96
2019-02-20T03:09:39.442Z,24.98
2019-02-20T03:10:39.397Z,24.99
2019-02-20T03:11:39.352Z,24.99
2019-02-20T03:12:39.308Z,24.95
2019-02-20T03:13:39.264Z,24.98
2019-02-20T03:14:39.220Z,25.00
2019-02-20T03:15:39.175Z,24.98
2019-02-20T03:16:39.133Z,24.95
2019-02-20T03:17:39.087Z,24.93
2019-02-20T03:18:39.050Z,24.91
2019-02-20T03:19:38.997Z,24.91
2019-02-20T03:20:38.952Z,24.98
2019-02-20T03:21:38.908Z,24.96
2019-02-20T03:22:38.866Z,24.98
2019-02-20T03:23:40.511Z,25.00
2019-02-20T03:24:38.774Z,25.02
2019-02-20T03:25:38.730Z,25.00
2019-02-20T03:26:38.687Z,25.00
2019-02-20T03:27:38.642Z,25.03
2019-02-20T03:28:40.177Z,25.09
2019-02-20T03:29:38.554Z,25.03
2019-02-20T03:30:38.527Z,24.99
2019-02-20T03:31:38.483Z,24.99
2019-02-20T03:32:38.419Z,24.98
2019-02-20T03:33:38.375Z,24.99
2019-02-20T03:34:38.330Z,24.96
2019-02-20T03:35:38.286Z,24.96
2019-02-20T03:36:38.241Z,24.91
2019-02-20T03:37:38.196Z,24.93
2019-02-20T03:38:38.155Z,24.95
2019-02-20T03:39:38.107Z,24.90
2019-02-20T03:40:38.061Z,25.00
2019-02-20T03:41:38.035Z,24.95
2019-02-20T03:42:38.025Z,25.02
2019-02-20T03:43:37.930Z,24.93
2019-02-20T03:44:37.884Z,24.99
2019-02-20T03:45:37.840Z,24.98
2019-02-20T03:46:37.796Z,24.98
2019-02-20T03:47:37.759Z,24.99
2019-02-20T03:48:37.715Z,25.00
2019-02-20T03:49:37.664Z,24.93
2019-02-20T03:50:37.618Z,25.03
2019-02-20T03:51:37.574Z,24.95
2019-02-20T03:52:37.529Z,25.00
2019-02-20T03:53:37.484Z,24.87
2019-02-20T03:54:37.446Z,25.00
2019-02-20T03:55:37.396Z,24.99
2019-02-20T03:56:37.352Z,25.06
2019-02-20T03:57:37.305Z,25.05
2019-02-20T03:58:37.262Z,24.91
2019-02-20T03:59:37.219Z,24.98
2019-02-20T04:00:37.172Z,25.08
2019-02-20T04:01:37.127Z,25.02
2019-02-20T04:02:37.084Z,24.98
2019-02-20T04:03:37.040Z,25.06
2019-02-20T04:04:36.998Z,24.99
2019-02-20T04:05:37.002Z,25.03
2019-02-20T04:06:36.908Z,25.02
2019-02-20T04:07:36.864Z,24.93
2019-02-20T04:08:36.816Z,25.00
2019-02-20T04:09:36.774Z,24.99
2019-02-20T04:10:36.729Z,24.98
2019-02-20T04:11:36.686Z,24.99
2019-02-20T04:12:36.639Z,24.99
2019-02-20T04:13:36.594Z,24.95
2019-02-20T04:14:36.556Z,24.96
2019-02-20T04:15:36.509Z,25.09
2019-02-20T04:16:36.462Z,24.95
2019-02-20T04:17:36.419Z,24.93
2019-02-20T04:18:36.377Z,24.95
2019-02-20T04:19:36.327Z,25.02
2019-02-20T04:20:36.286Z,25.06
2019-02-20T04:21:36.247Z,25.09
2019-02-20T04:22:36.195Z,24.96
2019-02-20T04:23:36.149Z,25.05
2019-02-20T04:24:36.107Z,25.00
2019-02-20T04:25:36.060Z,24.91
2019-02-20T04:26:36.118Z,25.06
2019-02-20T04:27:36.027Z,24.93
2019-02-20T04:28:36.084Z,25.00
2019-02-20T04:29:35.883Z,24.96
2019-02-20T04:30:35.839Z,24.93
2019-02-20T04:31:35.800Z,24.96
2019-02-20T04:32:35.749Z,24.95
2019-02-20T04:33:35.711Z,24.95
2019-02-20T04:34:35.660Z,24.96
2019-02-20T04:35:35.616Z,24.93
2019-02-20T04:36:35.571Z,24.98
2019-02-20T04:37:35.528Z,24.96
2019-02-20T04:38:35.482Z,25.03
2019-02-20T04:39:35.447Z,25.03
2019-02-20T04:40:35.394Z,24.99
2019-02-20T04:41:35.348Z,25.00
2019-02-20T04:42:35.307Z,24.95
2019-02-20T04:43:35.262Z,24.93
2019-02-20T04:44:35.215Z,24.96
2019-02-20T04:45:35.173Z,25.06
2019-02-20T04:46:35.128Z,25.06
2019-02-20T04:47:35.083Z,25.03
2019-02-20T04:48:35.137Z,25.02
2019-02-20T04:49:35.094Z,25.05
2019-02-20T04:50:35.100Z,25.02
2019-02-20T04:51:34.904Z,25.06
2019-02-20T04:52:34.860Z,25.00
2019-02-20T04:53:34.815Z,24.96
2019-02-20T04:54:34.771Z,24.99
2019-02-20T04:55:34.727Z,25.02
2019-02-20T04:56:34.681Z,25.08
2019-02-20T04:57:34.638Z,24.99
2019-02-20T04:58:34.611Z,25.03
2019-02-20T04:59:34.548Z,24.95
2019-02-20T05:00:34.504Z,25.00
2019-02-20T05:01:34.561Z,25.03
2019-02-20T05:02:34.416Z,24.95
2019-02-20T05:03:34.371Z,24.95
2019-02-20T05:04:34.326Z,25.02
2019-02-20T05:05:34.282Z,24.93
2019-02-20T05:06:34.238Z,25.02
2019-02-20T05:07:34.193Z,24.96
2019-02-20T05:08:34.173Z,24.93
2019-02-20T05:09:34.104Z,24.96
2019-02-20T05:10:34.061Z,24.95
2019-02-20T05:11:34.019Z,24.93
2019-02-20T05:12:33.971Z,25.02
2019-02-20T05:13:33.926Z,24.96
2019-02-20T05:14:33.886Z,24.93
2019-02-20T05:15:33.838Z,24.96
2019-02-20T05:16:33.802Z,24.93
2019-02-20T05:17:33.748Z,24.99
2019-02-20T05:18:33.704Z,24.93
2019-02-20T05:19:33.673Z,25.00
2019-02-20T05:20:33.626Z,25.00
2019-02-20T05:21:33.581Z,24.99
2019-02-20T05:22:33.527Z,24.93
2019-02-20T05:23:33.485Z,24.93
2019-02-20T05:24:33.439Z,24.93
2019-02-20T05:25:33.393Z,24.99
2019-02-20T05:26:33.359Z,24.96
2019-02-20T05:27:33.304Z,25.02
2019-02-20T05:28:33.263Z,24.95
2019-02-20T05:29:33.213Z,24.91
2019-02-20T05:30:33.170Z,25.00
2019-02-20T05:31:33.129Z,25.03
2019-02-20T05:32:33.081Z,24.98
2019-02-20T05:33:33.040Z,24.91
2019-02-20T05:34:32.994Z,24.96
2019-02-20T05:35:32.951Z,24.96
2019-02-20T05:36:32.904Z,24.98
2019-02-20T05:37:32.859Z,24.95
2019-02-20T05:38:32.813Z,24.93
2019-02-20T05:39:32.770Z,24.96
2019-02-20T05:40:32.725Z,24.96
2019-02-20T05:41:32.685Z,24.98
2019-02-20T05:42:32.638Z,25.03
2019-02-20T05:43:32.592Z,24.95
2019-02-20T05:44:32.548Z,24.93
2019-02-20T05:45:32.503Z,24.93
2019-02-20T05:46:32.459Z,24.90
2019-02-20T05:47:32.415Z,24.95
2019-02-20T05:48:32.407Z,25.03
2019-02-20T05:49:32.325Z,24.96
2019-02-20T05:50:32.288Z,24.93
2019-02-20T05:51:32.238Z,24.95
2019-02-20T05:52:32.191Z,25.03
2019-02-20T05:53:32.147Z,24.93
2019-02-20T05:54:34.609Z,25.05
2019-02-20T05:55:32.059Z,24.96
2019-02-20T05:56:32.012Z,24.95
2019-02-20T05:57:31.969Z,25.00
2019-02-20T05:58:31.926Z,24.96
2019-02-20T05:59:31.881Z,25.03
2019-02-20T06:00:31.836Z,24.96
2019-02-20T06:01:31.791Z,25.02
2019-02-20T06:02:31.746Z,24.99
2019-02-20T06:03:31.705Z,24.93
2019-02-20T06:04:31.659Z,24.96
2019-02-20T06:05:31.613Z,24.95
2019-02-20T06:06:31.572Z,25.05
2019-02-20T06:07:31.527Z,25.03
2019-02-20T06:08:31.482Z,25.02
2019-02-20T06:09:31.435Z,24.95
2019-02-20T06:10:31.397Z,24.96
2019-02-20T06:11:31.347Z,24.96
2019-02-20T06:12:31.305Z,24.96
2019-02-20T06:13:31.258Z,24.96
2019-02-20T06:14:31.214Z,24.98
2019-02-20T06:15:31.168Z,25.03
2019-02-20T06:16:31.124Z,24.95
2019-02-20T06:17:31.079Z,25.10
2019-02-20T06:18:31.036Z,25.03
2019-02-20T06:19:30.991Z,25.02
2019-02-20T06:20:30.946Z,24.96
2019-02-20T06:21:30.908Z,24.98
2019-02-20T06:22:30.858Z,24.93
2019-02-20T06:23:30.839Z,25.00
2019-02-20T06:24:30.768Z,24.99
2019-02-20T06:25:30.726Z,25.08
2019-02-20T06:26:30.678Z,24.96
2019-02-20T06:27:30.636Z,24.99
2019-02-20T06:28:30.591Z,24.95
2019-02-20T06:29:30.546Z,24.98
2019-02-20T06:30:30.509Z,25.02
2019-02-20T06:31:30.507Z,25.03
2019-02-20T06:32:30.413Z,25.09
2019-02-20T06:33:30.372Z,25.10
2019-02-20T06:34:30.329Z,25.05
2019-02-20T06:35:30.280Z,25.02
2019-02-20T06:36:30.234Z,25.13
2019-02-20T06:37:30.190Z,25.09
2019-02-20T06:38:30.146Z,25.06
2019-02-20T06:39:30.102Z,25.06
2019-02-20T06:40:30.057Z,25.13
2019-02-20T06:41:38.582Z,25.03
2019-02-20T06:42:29.970Z,25.03
2019-02-20T06:43:29.924Z,25.05
2019-02-20T06:44:29.885Z,25.03
2019-02-20T06:45:29.835Z,25.13
2019-02-20T06:46:29.790Z,25.13
2019-02-20T06:47:29.746Z,25.03
2019-02-20T06:48:29.703Z,24.98
2019-02-20T06:49:29.656Z,25.05
2019-02-20T06:50:29.612Z,25.10
2019-02-20T06:51:29.568Z,25.09
2019-02-20T06:52:29.523Z,25.08
2019-02-20T06:53:29.481Z,25.03
2019-02-20T06:54:29.435Z,25.14
2019-02-20T06:55:29.395Z,25.15
2019-02-20T06:56:29.345Z,25.09
2019-02-20T06:57:29.300Z,25.15
2019-02-20T06:58:29.257Z,25.17
2019-02-20T06:59:29.212Z,25.09
2019-02-20T07:00:29.169Z,25.18
2019-02-20T07:01:29.444Z,25.21
2019-02-20T07:02:29.079Z,25.24
2019-02-20T07:03:29.039Z,25.27
2019-02-20T07:04:29.040Z,25.21
2019-02-20T07:05:29.046Z,25.20
2019-02-20T07:06:28.902Z,25.20
2019-02-20T07:07:28.857Z,25.27
2019-02-20T07:08:28.814Z,25.24
2019-02-20T07:09:28.771Z,25.28
2019-02-20T07:10:28.729Z,25.21
2019-02-20T07:11:28.683Z,25.21
2019-02-20T07:12:28.635Z,25.20
2019-02-20T07:13:28.593Z,25.35
2019-02-20T07:14:28.548Z,25.30
2019-02-20T07:15:28.502Z,25.33
2019-02-20T07:16:28.457Z,25.33
2019-02-20T07:17:28.413Z,25.24
2019-02-20T07:18:28.369Z,25.32
2019-02-20T07:19:28.328Z,25.20
2019-02-20T07:20:28.284Z,25.25
2019-02-20T07:21:28.234Z,25.32
2019-02-20T07:22:28.196Z,25.35
2019-02-20T07:23:28.153Z,25.33
2019-02-20T07:24:28.102Z,25.28
2019-02-20T07:25:28.061Z,25.32
2019-02-20T07:26:28.014Z,25.33
2019-02-20T07:27:27.974Z,25.33
2019-02-20T07:28:27.924Z,25.28
2019-02-20T07:29:27.880Z,25.30
2019-02-20T07:30:27.835Z,25.36
2019-02-20T07:31:27.792Z,25.25
2019-02-20T07:32:27.747Z,25.32
2019-02-20T07:33:27.703Z,25.30
2019-02-20T07:34:27.662Z,25.27
2019-02-20T07:35:27.619Z,25.28
2019-02-20T07:36:27.573Z,25.28
2019-02-20T07:37:27.558Z,25.36
2019-02-20T07:38:27.480Z,25.35
2019-02-20T07:39:27.438Z,25.30
2019-02-20T07:40:27.392Z,25.43
2019-02-20T07:41:27.349Z,25.36
2019-02-20T07:42:27.304Z,25.43
2019-02-20T07:43:27.259Z,25.36
2019-02-20T07:44:27.216Z,25.43
2019-02-20T07:45:27.171Z,25.46
2019-02-20T07:46:27.127Z,25.57
2019-02-20T07:47:27.085Z,25.47
2019-02-20T07:48:27.088Z,25.50
2019-02-20T07:49:27.095Z,25.60
2019-02-20T07:50:26.999Z,25.60
2019-02-20T07:51:26.905Z,25.65
2019-02-20T07:52:26.861Z,25.77
2019-02-20T07:53:26.817Z,25.76
2019-02-20T07:54:26.773Z,25.83
2019-02-20T07:55:26.728Z,25.85
2019-02-20T07:56:26.684Z,25.82
2019-02-20T07:57:26.640Z,25.92
2019-02-20T07:58:26.597Z,25.91
2019-02-20T07:59:26.555Z,25.97
2019-02-20T08:00:26.508Z,26.02
2019-02-20T08:01:26.463Z,26.15
2019-02-20T08:02:26.418Z,26.15
2019-02-20T08:03:26.376Z,26.25
2019-02-20T08:04:26.332Z,26.26
2019-02-20T08:05:26.288Z,26.17
2019-02-20T08:06:26.243Z,26.20
2019-02-20T08:07:26.200Z,26.20
2019-02-20T08:08:26.164Z,26.15
2019-02-20T08:09:26.111Z,26.12
2019-02-20T08:10:26.078Z,26.07
2019-02-20T08:11:26.024Z,26.01
2019-02-20T08:12:26.028Z,25.97
2019-02-20T08:13:26.035Z,25.97
2019-02-20T08:14:25.893Z,25.88
2019-02-20T08:15:25.848Z,25.90
2019-02-20T08:16:25.803Z,25.99
2019-02-20T08:17:25.759Z,25.95
2019-02-20T08:18:25.716Z,25.90
2019-02-20T08:19:25.676Z,25.87
2019-02-20T08:20:25.627Z,25.90
2019-02-20T08:21:25.601Z,25.88
2019-02-20T08:22:25.540Z,25.85
2019-02-20T08:23:25.497Z,25.87
2019-02-20T08:24:25.452Z,25.82
2019-02-20T08:25:25.417Z,25.76
2019-02-20T08:26:25.367Z,25.76
2019-02-20T08:27:25.320Z,25.73
2019-02-20T08:28:25.276Z,25.77
2019-02-20T08:29:25.232Z,25.83
2019-02-20T08:30:25.188Z,25.87
2019-02-20T08:31:25.147Z,25.90
2019-02-20T08:32:25.100Z,25.98
2019-02-20T08:33:25.056Z,26.13
2019-02-20T08:34:25.012Z,26.29
2019-02-20T08:35:24.969Z,26.32
2019-02-20T08:36:24.924Z,26.40
2019-02-20T08:37:24.880Z,26.51
2019-02-20T08:38:24.837Z,26.60
2019-02-20T08:39:24.793Z,26.57
2019-02-20T08:40:24.751Z,26.66
2019-02-20T08:41:24.706Z,26.72
2019-02-20T08:42:24.661Z,26.73
2019-02-20T08:43:24.618Z,26.75
2019-02-20T08:44:24.573Z,26.77
2019-02-20T08:45:24.533Z,26.73
2019-02-20T08:46:24.494Z,26.84
2019-02-20T08:47:24.445Z,26.84
2019-02-20T08:48:24.400Z,26.81
2019-02-20T08:49:24.359Z,26.77
2019-02-20T08:50:24.313Z,26.73
2019-02-20T08:51:24.271Z,26.75
2019-02-20T08:52:24.225Z,26.63
2019-02-20T08:53:24.185Z,26.63
2019-02-20T08:54:24.138Z,26.63
2019-02-20T08:55:31.721Z,26.50
2019-02-20T08:56:24.151Z,26.45
2019-02-20T08:57:24.007Z,26.44
2019-02-20T08:58:24.114Z,26.33
2019-02-20T08:59:23.924Z,26.33
2019-02-20T09:00:23.879Z,26.37
2019-02-20T09:01:23.833Z,26.28
2019-02-20T09:02:23.789Z,26.26
2019-02-20T09:03:23.747Z,26.15
2019-02-20T09:04:23.706Z,26.18
2019-02-20T09:05:23.659Z,26.10
2019-02-20T09:06:23.619Z,26.17
2019-02-20T09:07:23.573Z,26.10
2019-02-20T09:08:23.528Z,26.12
2019-02-20T09:09:23.486Z,26.09
2019-02-20T09:10:23.442Z,25.98
2019-02-20T09:11:23.400Z,26.02
2019-02-20T09:12:23.353Z,26.01
2019-02-20T09:13:23.308Z,25.98
2019-02-20T09:14:23.266Z,25.98
2019-02-20T09:15:23.224Z,25.94
2019-02-20T09:16:23.181Z,25.87
2019-02-20T09:17:23.135Z,25.92
2019-02-20T09:18:23.091Z,25.85
2019-02-20T09:19:23.048Z,25.83
2019-02-20T09:20:23.004Z,25.91
2019-02-20T09:21:22.977Z,25.91
2019-02-20T09:22:22.917Z,25.90
2019-02-20T09:23:22.874Z,25.75
2019-02-20T09:24:22.835Z,25.83
2019-02-20T09:25:22.785Z,25.82
2019-02-20T09:26:22.742Z,25.88
2019-02-20T09:27:22.698Z,25.85
2019-02-20T09:28:22.704Z,25.82
2019-02-20T09:29:22.611Z,25.73
2019-02-20T09:30:28.453Z,25.80
2019-02-20T09:31:22.523Z,25.76
2019-02-20T09:32:22.478Z,25.76
2019-02-20T09:33:22.436Z,25.73
2019-02-20T09:34:22.391Z,25.73
2019-02-20T09:35:22.348Z,25.80
2019-02-20T09:36:22.308Z,25.76
2019-02-20T09:37:22.260Z,25.76
2019-02-20T09:38:22.216Z,25.79
2019-02-20T09:39:22.223Z,25.73
2019-02-20T09:40:22.128Z,25.75
2019-02-20T09:41:22.085Z,25.83
2019-02-20T09:42:22.043Z,25.77
2019-02-20T09:43:21.996Z,25.73
2019-02-20T09:44:22.053Z,25.85
2019-02-20T09:45:21.959Z,25.82
2019-02-20T09:46:21.867Z,25.73
2019-02-20T09:47:21.822Z,25.85
2019-02-20T09:48:21.776Z,25.82
2019-02-20T09:49:21.733Z,25.79
2019-02-20T09:50:21.690Z,25.82
2019-02-20T09:51:21.647Z,25.77
2019-02-20T09:52:21.603Z,25.83
2019-02-20T09:53:21.557Z,25.77
2019-02-20T09:54:21.515Z,25.79
2019-02-20T09:55:21.471Z,25.88
2019-02-20T09:56:21.430Z,25.88
2019-02-20T09:57:21.391Z,25.82
2019-02-20T09:58:21.341Z,25.88
2019-02-20T09:59:21.298Z,25.87
2019-02-20T10:00:21.251Z,25.85
2019-02-20T10:01:21.208Z,25.87
2019-02-20T10:02:21.165Z,25.79
2019-02-20T10:03:21.120Z,25.83
2019-02-20T10:04:21.076Z,25.85
2019-02-20T10:05:21.039Z,25.82
2019-02-20T10:06:20.989Z,25.85
2019-02-20T10:07:20.994Z,25.85
2019-02-20T10:08:20.899Z,25.77
2019-02-20T10:09:20.859Z,25.88
2019-02-20T10:10:20.813Z,25.77
2019-02-20T10:11:20.769Z,25.80
2019-02-20T10:12:20.726Z,25.70
2019-02-20T10:13:20.681Z,25.76
2019-02-20T10:14:20.651Z,25.77
2019-02-20T10:15:20.594Z,25.77
2019-02-20T10:16:20.551Z,25.73
2019-02-20T10:17:20.506Z,25.77
2019-02-20T10:18:20.462Z,25.82
2019-02-20T10:19:20.418Z,25.83
2019-02-20T10:20:20.373Z,25.85
2019-02-20T10:21:20.334Z,25.87
2019-02-20T10:22:20.289Z,25.87
2019-02-20T10:23:20.245Z,25.83
2019-02-20T10:24:20.198Z,25.88
2019-02-20T10:25:20.155Z,25.90
2019-02-20T10:26:20.111Z,25.87
2019-02-20T10:27:20.072Z,25.90
2019-02-20T10:28:20.026Z,25.83
2019-02-20T10:29:20.031Z,25.88
2019-02-20T10:30:19.988Z,25.90
2019-02-20T10:31:19.892Z,25.94
2019-02-20T10:32:19.848Z,25.97
2019-02-20T10:33:19.805Z,26.01
2019-02-20T10:34:19.764Z,25.94
2019-02-20T10:35:19.717Z,25.85
2019-02-20T10:36:19.672Z,25.99
2019-02-20T10:37:19.636Z,25.85
2019-02-20T10:38:19.585Z,25.85
2019-02-20T10:39:19.548Z,25.85
2019-02-20T10:40:19.497Z,25.83
2019-02-20T10:41:19.454Z,25.91
2019-02-20T10:42:19.410Z,25.83
2019-02-20T10:43:19.466Z,25.85
2019-02-20T10:44:19.322Z,25.83
2019-02-20T10:45:19.278Z,25.85
2019-02-20T10:46:19.234Z,25.92
2019-02-20T10:47:19.192Z,25.88
2019-02-20T10:48:19.146Z,25.83
2019-02-20T10:49:19.102Z,25.80
2019-02-20T10:50:19.060Z,25.87
2019-02-20T10:51:19.028Z,25.91
2019-02-20T10:52:19.021Z,25.83
2019-02-20T10:53:18.927Z,25.85
2019-02-20T10:54:18.883Z,25.85
2019-02-20T10:55:18.842Z,25.87
2019-02-20T10:56:18.796Z,25.85
2019-02-20T10:57:18.751Z,25.87
2019-02-20T10:58:18.709Z,25.85
2019-02-20T10:59:18.665Z,25.87
2019-02-20T11:00:24.010Z,25.87
2019-02-20T11:01:18.577Z,25.88
2019-02-20T11:02:18.534Z,25.87
2019-02-20T11:03:18.489Z,25.90
2019-02-20T11:04:18.445Z,25.85
2019-02-20T11:05:18.401Z,25.85
2019-02-20T11:06:18.458Z,25.88
2019-02-20T11:07:18.315Z,25.83
2019-02-20T11:08:18.269Z,25.80
2019-02-20T11:09:18.225Z,25.79
2019-02-20T11:10:18.183Z,25.88
2019-02-20T11:11:18.139Z,25.90
2019-02-20T11:12:18.094Z,25.76
2019-02-20T11:13:18.051Z,25.75
2019-02-20T11:14:18.006Z,25.87
2019-02-20T11:15:17.964Z,25.82
2019-02-20T11:16:18.020Z,25.80
2019-02-20T11:17:17.876Z,25.73
2019-02-20T11:18:17.832Z,25.85
2019-02-20T11:19:17.793Z,25.85
2019-02-20T11:20:17.747Z,25.83
2019-02-20T11:21:17.700Z,25.75
2019-02-20T11:22:17.655Z,25.73
2019-02-20T11:23:17.616Z,25.79
2019-02-20T11:24:17.955Z,25.87
2019-02-20T11:25:17.525Z,25.83
2019-02-20T11:26:18.580Z,25.82
2019-02-20T11:27:19.392Z,25.76
2019-02-20T11:28:17.392Z,25.82
2019-02-20T11:29:17.349Z,25.79
2019-02-20T11:30:17.307Z,25.75
2019-02-20T11:31:17.270Z,25.75
2019-02-20T11:32:17.218Z,25.83
2019-02-20T11:33:17.174Z,25.83
2019-02-20T11:34:17.130Z,25.79
2019-02-20T11:35:17.088Z,25.73
2019-02-20T11:36:17.042Z,25.75
2019-02-20T11:37:16.997Z,25.77
2019-02-20T11:38:17.055Z,25.76
2019-02-20T11:39:16.911Z,25.73
2019-02-20T11:40:16.866Z,25.73
2019-02-20T11:41:16.823Z,25.72
2019-02-20T11:42:16.780Z,25.85
2019-02-20T11:43:16.738Z,25.85
2019-02-20T11:44:20.944Z,25.85
2019-02-20T11:45:16.651Z,25.76
2019-02-20T11:46:16.602Z,25.85
2019-02-20T11:47:16.560Z,25.85
2019-02-20T11:48:16.515Z,25.83
2019-02-20T11:49:16.474Z,25.88
2019-02-20T11:50:16.428Z,25.88
2019-02-20T11:51:16.386Z,25.85
2019-02-20T11:52:16.341Z,25.83
2019-02-20T11:53:16.297Z,25.85
2019-02-20T11:54:16.254Z,25.79
2019-02-20T11:55:16.209Z,25.76
2019-02-20T11:56:16.165Z,25.80
2019-02-20T11:57:16.123Z,25.72
2019-02-20T11:58:16.078Z,25.79
2019-02-20T11:59:16.038Z,25.75
2019-02-20T12:00:15.989Z,25.62
2019-02-20T12:01:15.948Z,25.61
2019-02-20T12:02:16.053Z,25.69
2019-02-20T12:03:15.859Z,25.64
2019-02-20T12:04:15.814Z,25.60
2019-02-20T12:05:15.771Z,25.65
2019-02-20T12:06:15.727Z,25.64
2019-02-20T12:07:15.684Z,25.60
2019-02-20T12:08:15.639Z,25.70
2019-02-20T12:09:15.595Z,25.67
2019-02-20T12:10:15.554Z,25.62
2019-02-20T12:11:15.507Z,25.61
2019-02-20T12:12:15.463Z,25.61
2019-02-20T12:13:15.420Z,25.61
2019-02-20T12:14:15.376Z,25.61
2019-02-20T12:15:15.333Z,25.61
2019-02-20T12:16:15.288Z,25.65
2019-02-20T12:17:15.244Z,25.65
2019-02-20T12:18:17.317Z,25.61
2019-02-20T12:19:15.157Z,25.69
2019-02-20T12:20:15.111Z,25.67
2019-02-20T12:21:15.067Z,25.67
2019-02-20T12:22:15.025Z,25.75
2019-02-20T12:23:14.981Z,25.73
2019-02-20T12:24:15.036Z,25.77
2019-02-20T12:25:14.893Z,25.76
2019-02-20T12:26:14.854Z,25.76
2019-02-20T12:27:14.806Z,25.76
2019-02-20T12:28:14.761Z,25.73
2019-02-20T12:29:14.717Z,25.76
2019-02-20T12:30:14.676Z,25.73
2019-02-20T12:31:14.639Z,25.67
2019-02-20T12:32:14.586Z,25.75
2019-02-20T12:33:14.542Z,25.61
2019-02-20T12:34:14.498Z,25.60
2019-02-20T12:35:14.454Z,25.65
2019-02-20T12:36:14.412Z,25.62
2019-02-20T12:37:14.366Z,25.57
2019-02-20T12:38:14.326Z,25.60
2019-02-20T12:39:14.284Z,25.58
2019-02-20T12:40:14.234Z,25.61
2019-02-20T12:41:14.191Z,25.52
2019-02-20T12:42:14.147Z,25.55
2019-02-20T12:43:14.103Z,25.60
2019-02-20T12:44:14.058Z,25.50
2019-02-20T12:45:14.018Z,25.50
2019-02-20T12:46:13.977Z,25.47
2019-02-20T12:47:13.979Z,25.47
2019-02-20T12:48:13.883Z,25.58
2019-02-20T12:49:13.839Z,25.55
2019-02-20T12:50:13.796Z,25.60
2019-02-20T12:51:13.781Z,25.52
2019-02-20T12:52:13.709Z,25.57